sensor_id;sensor_type;location;lat;lon;timestamp;temperature;humidity
19586;DHT22;9939;49.246;9.106;2023-09-12T00:00:42;18.10;99.90
19586;DHT22;9939;49.246;9.106;2023-09-12T00:03:10;18.10;99.90
19586;DHT22;9939;49.246;9.106;2023-09-12T00:05:38;18.20;99.90
19586;DHT22;9939;49.246;9.106;2023-09-12T00:08:05;18.20;99.90
19586;DHT22;9939;49.246;9.106;2023-09-12T00:10:32;18.10;99.90
19586;DHT22;9939;49.246;9.106;2023-09-12T00:12:59;18.10;99.90
19586;DHT22;9939;49.246;9.106;2023-09-12T00:15:27;18.00;99.90
19586;DHT22;9939;49.246;9.106;2023-09-12T00:17:54;18.00;99.90
19586;DHT22;9939;49.246;9.106;2023-09-12T00:20:21;18.00;99.90
19586;DHT22;9939;49.246;9.106;2023-09-12T00:22:48;18.00;99.90
19586;DHT22;9939;49.246;9.106;2023-09-12T00:25:16;17.90;99.90
19586;DHT22;9939;49.246;9.106;2023-09-12T00:27:43;17.90;99.90
19586;DHT22;9939;49.246;9.106;2023-09-12T00:30:09;17.80;99.90
19586;DHT22;9939;49.246;9.106;2023-09-12T00:32:37;17.70;99.90
19586;DHT22;9939;49.246;9.106;2023-09-12T00:35:04;17.70;99.90
19586;DHT22;9939;49.246;9.106;2023-09-12T00:37:31;17.80;99.90
19586;DHT22;9939;49.246;9.106;2023-09-12T00:39:58;17.80;99.90
19586;DHT22;9939;49.246;9.106;2023-09-12T00:42:25;17.90;99.90
19586;DHT22;9939;49.246;9.106;2023-09-12T00:44:52;17.70;99.90
19586;DHT22;9939;49.246;9.106;2023-09-12T00:47:20;17.70;99.90
19586;DHT22;9939;49.246;9.106;2023-09-12T00:49:47;17.70;99.90
19586;DHT22;9939;49.246;9.106;2023-09-12T00:52:26;17.70;99.90
19586;DHT22;9939;49.246;9.106;2023-09-12T00:54:53;17.60;99.90
19586;DHT22;9939;49.246;9.106;2023-09-12T00:57:21;17.40;99.90
19586;DHT22;9939;49.246;9.106;2023-09-12T00:59:49;17.50;99.90
19586;DHT22;9939;49.246;9.106;2023-09-12T01:02:17;17.50;99.90
19586;DHT22;9939;49.246;9.106;2023-09-12T01:04:44;17.50;99.90
19586;DHT22;9939;49.246;9.106;2023-09-12T01:07:11;17.70;99.90
19586;DHT22;9939;49.246;9.106;2023-09-12T01:09:39;17.70;99.90
19586;DHT22;9939;49.246;9.106;2023-09-12T01:12:07;17.60;99.90
19586;DHT22;9939;49.246;9.106;2023-09-12T01:14:34;17.40;99.90
19586;DHT22;9939;49.246;9.106;2023-09-12T01:17:00;17.30;99.90
19586;DHT22;9939;49.246;9.106;2023-09-12T01:19:29;17.20;99.90
19586;DHT22;9939;49.246;9.106;2023-09-12T01:27:21;17.20;99.90
19586;DHT22;9939;49.246;9.106;2023-09-12T01:29:49;17.20;99.90
19586;DHT22;9939;49.246;9.106;2023-09-12T01:32:18;17.30;99.90
19586;DHT22;9939;49.246;9.106;2023-09-12T01:34:45;17.20;99.90
19586;DHT22;9939;49.246;9.106;2023-09-12T01:37:12;17.20;99.90
19586;DHT22;9939;49.246;9.106;2023-09-12T01:39:39;17.30;99.90
19586;DHT22;9939;49.246;9.106;2023-09-12T01:42:06;17.10;99.90
19586;DHT22;9939;49.246;9.106;2023-09-12T01:44:35;17.00;99.90
19586;DHT22;9939;49.246;9.106;2023-09-12T01:47:03;17.00;99.90
19586;DHT22;9939;49.246;9.106;2023-09-12T01:49:33;17.00;99.90
19586;DHT22;9939;49.246;9.106;2023-09-12T01:52:00;17.00;99.90
19586;DHT22;9939;49.246;9.106;2023-09-12T01:54:28;17.20;99.90
19586;DHT22;9939;49.246;9.106;2023-09-12T01:56:56;17.20;99.90
19586;DHT22;9939;49.246;9.106;2023-09-12T01:59:24;17.20;99.90
19586;DHT22;9939;49.246;9.106;2023-09-12T02:01:51;17.10;99.90
19586;DHT22;9939;49.246;9.106;2023-09-12T02:04:18;17.10;99.90
19586;DHT22;9939;49.246;9.106;2023-09-12T02:06:45;17.10;99.90
19586;DHT22;9939;49.246;9.106;2023-09-12T02:09:15;17.00;99.90
19586;DHT22;9939;49.246;9.106;2023-09-12T02:11:42;16.90;99.90
19586;DHT22;9939;49.246;9.106;2023-09-12T02:14:09;17.00;99.90
19586;DHT22;9939;49.246;9.106;2023-09-12T02:16:37;16.90;99.90
19586;DHT22;9939;49.246;9.106;2023-09-12T02:19:08;16.90;99.90
19586;DHT22;9939;49.246;9.106;2023-09-12T02:21:34;17.00;99.90
19586;DHT22;9939;49.246;9.106;2023-09-12T02:24:02;16.90;99.90
19586;DHT22;9939;49.246;9.106;2023-09-12T02:26:29;17.00;99.90
19586;DHT22;9939;49.246;9.106;2023-09-12T02:28:56;16.90;99.90
19586;DHT22;9939;49.246;9.106;2023-09-12T02:31:23;16.80;99.90
19586;DHT22;9939;49.246;9.106;2023-09-12T02:33:50;16.70;99.90
19586;DHT22;9939;49.246;9.106;2023-09-12T02:36:17;16.70;99.90
19586;DHT22;9939;49.246;9.106;2023-09-12T02:38:44;16.60;99.90
19586;DHT22;9939;49.246;9.106;2023-09-12T02:41:10;16.70;99.90
19586;DHT22;9939;49.246;9.106;2023-09-12T02:43:37;16.70;99.90
19586;DHT22;9939;49.246;9.106;2023-09-12T02:46:04;16.80;99.90
19586;DHT22;9939;49.246;9.106;2023-09-12T02:48:31;16.80;99.90
19586;DHT22;9939;49.246;9.106;2023-09-12T02:50:59;16.70;99.90
19586;DHT22;9939;49.246;9.106;2023-09-12T02:53:26;16.60;99.90
19586;DHT22;9939;49.246;9.106;2023-09-12T02:55:53;16.60;99.90
19586;DHT22;9939;49.246;9.106;2023-09-12T02:58:21;16.80;99.90
19586;DHT22;9939;49.246;9.106;2023-09-12T03:00:48;16.80;99.90
19586;DHT22;9939;49.246;9.106;2023-09-12T03:03:17;16.70;99.90
19586;DHT22;9939;49.246;9.106;2023-09-12T03:05:44;16.70;99.90
19586;DHT22;9939;49.246;9.106;2023-09-12T03:08:11;16.60;99.90
19586;DHT22;9939;49.246;9.106;2023-09-12T03:10:38;16.60;99.90
19586;DHT22;9939;49.246;9.106;2023-09-12T03:13:05;16.60;99.90
19586;DHT22;9939;49.246;9.106;2023-09-12T03:15:36;16.70;99.90
19586;DHT22;9939;49.246;9.106;2023-09-12T03:18:04;16.50;99.90
19586;DHT22;9939;49.246;9.106;2023-09-12T03:20:31;16.50;99.90
19586;DHT22;9939;49.246;9.106;2023-09-12T03:22:59;16.40;99.90
19586;DHT22;9939;49.246;9.106;2023-09-12T03:25:25;16.40;99.90
19586;DHT22;9939;49.246;9.106;2023-09-12T03:27:53;16.40;99.90
19586;DHT22;9939;49.246;9.106;2023-09-12T03:30:20;16.40;99.90
19586;DHT22;9939;49.246;9.106;2023-09-12T03:32:47;16.60;99.90
19586;DHT22;9939;49.246;9.106;2023-09-12T03:35:14;16.70;99.90
19586;DHT22;9939;49.246;9.106;2023-09-12T03:37:40;16.70;99.90
19586;DHT22;9939;49.246;9.106;2023-09-12T03:40:09;16.70;99.90
19586;DHT22;9939;49.246;9.106;2023-09-12T03:42:37;16.50;99.90
19586;DHT22;9939;49.246;9.106;2023-09-12T03:45:09;16.60;99.90
19586;DHT22;9939;49.246;9.106;2023-09-12T03:47:36;16.60;99.90
19586;DHT22;9939;49.246;9.106;2023-09-12T03:50:04;16.60;99.90
19586;DHT22;9939;49.246;9.106;2023-09-12T03:52:31;16.70;99.90
19586;DHT22;9939;49.246;9.106;2023-09-12T03:54:58;16.80;99.90
19586;DHT22;9939;49.246;9.106;2023-09-12T03:57:27;16.80;99.90
19586;DHT22;9939;49.246;9.106;2023-09-12T03:59:54;16.80;99.90
19586;DHT22;9939;49.246;9.106;2023-09-12T04:02:21;16.80;99.90
19586;DHT22;9939;49.246;9.106;2023-09-12T04:04:48;16.70;99.90
19586;DHT22;9939;49.246;9.106;2023-09-12T04:07:15;16.80;99.90
19586;DHT22;9939;49.246;9.106;2023-09-12T04:09:42;16.80;99.90
19586;DHT22;9939;49.246;9.106;2023-09-12T04:12:09;16.90;99.90
19586;DHT22;9939;49.246;9.106;2023-09-12T04:14:36;17.00;99.90
19586;DHT22;9939;49.246;9.106;2023-09-12T04:17:03;17.10;99.90
19586;DHT22;9939;49.246;9.106;2023-09-12T04:19:35;16.90;99.90
19586;DHT22;9939;49.246;9.106;2023-09-12T04:22:02;16.90;99.90
19586;DHT22;9939;49.246;9.106;2023-09-12T04:24:31;17.10;99.90
19586;DHT22;9939;49.246;9.106;2023-09-12T04:26:58;17.30;99.90
19586;DHT22;9939;49.246;9.106;2023-09-12T04:29:25;17.30;99.90
19586;DHT22;9939;49.246;9.106;2023-09-12T04:31:54;17.30;99.90
19586;DHT22;9939;49.246;9.106;2023-09-12T04:34:26;17.30;99.90
19586;DHT22;9939;49.246;9.106;2023-09-12T04:36:53;17.20;99.90
19586;DHT22;9939;49.246;9.106;2023-09-12T04:39:21;17.10;99.90
19586;DHT22;9939;49.246;9.106;2023-09-12T04:41:48;17.20;99.90
19586;DHT22;9939;49.246;9.106;2023-09-12T04:44:15;17.20;99.90
19586;DHT22;9939;49.246;9.106;2023-09-12T04:46:42;17.20;99.90
19586;DHT22;9939;49.246;9.106;2023-09-12T04:49:10;17.40;99.90
19586;DHT22;9939;49.246;9.106;2023-09-12T04:51:37;17.30;99.90
19586;DHT22;9939;49.246;9.106;2023-09-12T04:54:04;17.10;99.90
19586;DHT22;9939;49.246;9.106;2023-09-12T04:56:31;17.20;99.90
19586;DHT22;9939;49.246;9.106;2023-09-12T04:58:58;17.10;99.90
19586;DHT22;9939;49.246;9.106;2023-09-12T05:01:25;17.20;99.90
19586;DHT22;9939;49.246;9.106;2023-09-12T05:03:53;17.40;99.90
19586;DHT22;9939;49.246;9.106;2023-09-12T05:06:20;17.30;99.90
19586;DHT22;9939;49.246;9.106;2023-09-12T05:08:47;17.10;99.90
19586;DHT22;9939;49.246;9.106;2023-09-12T05:11:14;17.40;99.90
19586;DHT22;9939;49.246;9.106;2023-09-12T05:13:43;17.10;99.90
19586;DHT22;9939;49.246;9.106;2023-09-12T05:16:10;17.00;99.90
19586;DHT22;9939;49.246;9.106;2023-09-12T05:18:37;17.00;99.90
19586;DHT22;9939;49.246;9.106;2023-09-12T05:21:04;17.00;99.90
19586;DHT22;9939;49.246;9.106;2023-09-12T05:23:31;17.00;99.90
19586;DHT22;9939;49.246;9.106;2023-09-12T05:25:58;16.90;99.90
19586;DHT22;9939;49.246;9.106;2023-09-12T05:28:25;17.00;99.90
19586;DHT22;9939;49.246;9.106;2023-09-12T05:30:52;17.30;99.90
19586;DHT22;9939;49.246;9.106;2023-09-12T05:33:19;17.40;99.90
19586;DHT22;9939;49.246;9.106;2023-09-12T05:35:47;17.30;99.90
19586;DHT22;9939;49.246;9.106;2023-09-12T05:38:14;17.30;99.90
19586;DHT22;9939;49.246;9.106;2023-09-12T05:40:41;17.40;99.90
19586;DHT22;9939;49.246;9.106;2023-09-12T05:43:08;17.30;99.90
19586;DHT22;9939;49.246;9.106;2023-09-12T05:45:35;17.30;99.90
19586;DHT22;9939;49.246;9.106;2023-09-12T05:48:02;17.30;99.90
19586;DHT22;9939;49.246;9.106;2023-09-12T05:50:31;17.40;99.90
19586;DHT22;9939;49.246;9.106;2023-09-12T05:52:58;17.40;99.90
19586;DHT22;9939;49.246;9.106;2023-09-12T05:55:24;17.50;99.90
19586;DHT22;9939;49.246;9.106;2023-09-12T05:57:51;17.70;99.90
19586;DHT22;9939;49.246;9.106;2023-09-12T06:00:20;17.90;99.90
19586;DHT22;9939;49.246;9.106;2023-09-12T06:02:48;18.30;99.90
19586;DHT22;9939;49.246;9.106;2023-09-12T06:05:15;18.60;99.90
19586;DHT22;9939;49.246;9.106;2023-09-12T06:07:42;18.70;99.90
19586;DHT22;9939;49.246;9.106;2023-09-12T06:10:09;18.60;99.90
19586;DHT22;9939;49.246;9.106;2023-09-12T06:12:36;18.80;99.90
19586;DHT22;9939;49.246;9.106;2023-09-12T06:15:04;19.00;99.90
19586;DHT22;9939;49.246;9.106;2023-09-12T06:17:31;19.20;99.90
19586;DHT22;9939;49.246;9.106;2023-09-12T06:19:58;19.30;99.90
19586;DHT22;9939;49.246;9.106;2023-09-12T06:22:25;19.20;99.90
19586;DHT22;9939;49.246;9.106;2023-09-12T06:24:52;19.50;99.90
19586;DHT22;9939;49.246;9.106;2023-09-12T06:27:19;19.60;99.90
19586;DHT22;9939;49.246;9.106;2023-09-12T06:29:46;19.80;99.90
19586;DHT22;9939;49.246;9.106;2023-09-12T06:32:19;20.20;99.90
19586;DHT22;9939;49.246;9.106;2023-09-12T06:34:46;20.00;99.90
19586;DHT22;9939;49.246;9.106;2023-09-12T06:37:14;19.90;99.90
19586;DHT22;9939;49.246;9.106;2023-09-12T06:39:40;20.00;99.90
19586;DHT22;9939;49.246;9.106;2023-09-12T06:42:08;20.10;99.90
19586;DHT22;9939;49.246;9.106;2023-09-12T06:44:35;20.30;99.90
19586;DHT22;9939;49.246;9.106;2023-09-12T06:47:05;20.60;99.90
19586;DHT22;9939;49.246;9.106;2023-09-12T06:49:32;20.70;99.90
19586;DHT22;9939;49.246;9.106;2023-09-12T06:52:01;20.80;99.90
19586;DHT22;9939;49.246;9.106;2023-09-12T06:54:28;20.70;99.90
19586;DHT22;9939;49.246;9.106;2023-09-12T06:56:55;20.90;99.90
19586;DHT22;9939;49.246;9.106;2023-09-12T06:59:22;21.00;99.90
19586;DHT22;9939;49.246;9.106;2023-09-12T07:01:49;20.90;99.90
19586;DHT22;9939;49.246;9.106;2023-09-12T07:04:16;20.80;99.90
19586;DHT22;9939;49.246;9.106;2023-09-12T07:06:43;21.00;99.90
19586;DHT22;9939;49.246;9.106;2023-09-12T07:09:10;21.20;99.90
19586;DHT22;9939;49.246;9.106;2023-09-12T07:11:41;21.00;99.90
19586;DHT22;9939;49.246;9.106;2023-09-12T07:14:08;20.80;99.90
19586;DHT22;9939;49.246;9.106;2023-09-12T07:16:36;20.60;99.90
19586;DHT22;9939;49.246;9.106;2023-09-12T07:19:04;20.70;99.90
19586;DHT22;9939;49.246;9.106;2023-09-12T07:21:31;20.90;99.90
19586;DHT22;9939;49.246;9.106;2023-09-12T07:23:58;20.60;99.90
19586;DHT22;9939;49.246;9.106;2023-09-12T07:26:25;20.50;99.90
19586;DHT22;9939;49.246;9.106;2023-09-12T07:28:54;20.40;99.90
19586;DHT22;9939;49.246;9.106;2023-09-12T07:31:21;20.30;99.90
19586;DHT22;9939;49.246;9.106;2023-09-12T07:33:48;20.30;99.90
19586;DHT22;9939;49.246;9.106;2023-09-12T07:36:15;20.40;99.90
19586;DHT22;9939;49.246;9.106;2023-09-12T07:38:42;20.60;99.90
19586;DHT22;9939;49.246;9.106;2023-09-12T07:41:12;21.00;99.90
19586;DHT22;9939;49.246;9.106;2023-09-12T07:43:39;21.60;99.90
19586;DHT22;9939;49.246;9.106;2023-09-12T07:46:07;21.80;99.90
19586;DHT22;9939;49.246;9.106;2023-09-12T07:48:34;22.50;99.90
19586;DHT22;9939;49.246;9.106;2023-09-12T07:51:01;23.10;99.90
19586;DHT22;9939;49.246;9.106;2023-09-12T07:53:29;23.50;99.90
19586;DHT22;9939;49.246;9.106;2023-09-12T07:55:58;23.10;99.90
19586;DHT22;9939;49.246;9.106;2023-09-12T07:58:25;23.70;99.90
19586;DHT22;9939;49.246;9.106;2023-09-12T08:00:52;24.40;99.90
19586;DHT22;9939;49.246;9.106;2023-09-12T08:03:19;25.30;99.90
19586;DHT22;9939;49.246;9.106;2023-09-12T08:05:58;25.30;99.90
19586;DHT22;9939;49.246;9.106;2023-09-12T08:08:25;24.90;99.90
19586;DHT22;9939;49.246;9.106;2023-09-12T08:10:52;24.30;99.90
19586;DHT22;9939;49.246;9.106;2023-09-12T08:13:19;25.30;99.90
19586;DHT22;9939;49.246;9.106;2023-09-12T08:15:46;25.90;99.90
19586;DHT22;9939;49.246;9.106;2023-09-12T08:18:13;26.70;99.90
19586;DHT22;9939;49.246;9.106;2023-09-12T08:20:40;26.90;99.90
19586;DHT22;9939;49.246;9.106;2023-09-12T08:23:07;27.00;99.90
19586;DHT22;9939;49.246;9.106;2023-09-12T08:25:34;27.10;99.90
19586;DHT22;9939;49.246;9.106;2023-09-12T08:28:01;27.70;99.90
19586;DHT22;9939;49.246;9.106;2023-09-12T08:30:28;27.00;99.90
19586;DHT22;9939;49.246;9.106;2023-09-12T08:32:59;27.40;99.90
19586;DHT22;9939;49.246;9.106;2023-09-12T08:35:29;26.60;99.90
19586;DHT22;9939;49.246;9.106;2023-09-12T08:37:56;27.40;99.90
19586;DHT22;9939;49.246;9.106;2023-09-12T08:40:23;28.20;99.90
19586;DHT22;9939;49.246;9.106;2023-09-12T08:42:50;28.70;99.90
19586;DHT22;9939;49.246;9.106;2023-09-12T08:45:19;28.40;99.90
19586;DHT22;9939;49.246;9.106;2023-09-12T08:47:49;28.80;99.90
19586;DHT22;9939;49.246;9.106;2023-09-12T08:50:16;28.50;99.90
19586;DHT22;9939;49.246;9.106;2023-09-12T08:52:44;29.20;99.90
19586;DHT22;9939;49.246;9.106;2023-09-12T08:55:31;29.50;99.90
19586;DHT22;9939;49.246;9.106;2023-09-12T08:58:03;31.40;99.90
19586;DHT22;9939;49.246;9.106;2023-09-12T09:00:30;30.90;99.90
19586;DHT22;9939;49.246;9.106;2023-09-12T09:02:57;31.60;99.90
19586;DHT22;9939;49.246;9.106;2023-09-12T09:05:25;32.30;99.90
19586;DHT22;9939;49.246;9.106;2023-09-12T09:07:54;32.60;99.90
19586;DHT22;9939;49.246;9.106;2023-09-12T09:10:21;31.40;99.90
19586;DHT22;9939;49.246;9.106;2023-09-12T09:13:03;32.50;99.90
19586;DHT22;9939;49.246;9.106;2023-09-12T09:15:33;32.50;99.90
19586;DHT22;9939;49.246;9.106;2023-09-12T09:18:01;32.10;99.90
19586;DHT22;9939;49.246;9.106;2023-09-12T09:20:30;34.00;99.90
19586;DHT22;9939;49.246;9.106;2023-09-12T09:25:36;34.90;99.90
19586;DHT22;9939;49.246;9.106;2023-09-12T09:28:05;35.40;99.90
19586;DHT22;9939;49.246;9.106;2023-09-12T09:30:39;32.70;99.90
19586;DHT22;9939;49.246;9.106;2023-09-12T09:33:06;33.80;99.90
19586;DHT22;9939;49.246;9.106;2023-09-12T09:35:34;34.60;99.90
19586;DHT22;9939;49.246;9.106;2023-09-12T09:38:01;33.20;99.90
19586;DHT22;9939;49.246;9.106;2023-09-12T09:40:28;33.90;99.90
19586;DHT22;9939;49.246;9.106;2023-09-12T09:42:56;34.60;99.90
19586;DHT22;9939;49.246;9.106;2023-09-12T09:45:22;34.30;99.90
19586;DHT22;9939;49.246;9.106;2023-09-12T09:47:50;35.00;99.90
19586;DHT22;9939;49.246;9.106;2023-09-12T09:50:17;35.50;99.90
19586;DHT22;9939;49.246;9.106;2023-09-12T09:52:44;36.30;99.70
19586;DHT22;9939;49.246;9.106;2023-09-12T09:55:14;35.50;99.90
19586;DHT22;9939;49.246;9.106;2023-09-12T09:57:41;36.90;98.60
19586;DHT22;9939;49.246;9.106;2023-09-12T10:00:08;36.80;98.30
19586;DHT22;9939;49.246;9.106;2023-09-12T10:02:41;36.20;98.70
19586;DHT22;9939;49.246;9.106;2023-09-12T10:05:09;35.60;99.40
19586;DHT22;9939;49.246;9.106;2023-09-12T10:07:37;37.50;97.50
19586;DHT22;9939;49.246;9.106;2023-09-12T10:10:06;37.70;96.30
19586;DHT22;9939;49.246;9.106;2023-09-12T10:12:36;38.50;95.90
19586;DHT22;9939;49.246;9.106;2023-09-12T10:15:04;38.60;94.80
19586;DHT22;9939;49.246;9.106;2023-09-12T10:17:35;37.90;94.60
19586;DHT22;9939;49.246;9.106;2023-09-12T10:20:03;37.40;94.70
19586;DHT22;9939;49.246;9.106;2023-09-12T10:22:40;36.80;94.70
19586;DHT22;9939;49.246;9.106;2023-09-12T10:25:08;36.80;94.20
19586;DHT22;9939;49.246;9.106;2023-09-12T10:27:36;36.70;94.30
19586;DHT22;9939;49.246;9.106;2023-09-12T10:30:02;37.20;94.00
19586;DHT22;9939;49.246;9.106;2023-09-12T10:32:31;38.40;92.80
19586;DHT22;9939;49.246;9.106;2023-09-12T10:34:59;38.50;92.50
19586;DHT22;9939;49.246;9.106;2023-09-12T10:37:26;39.00;91.40
19586;DHT22;9939;49.246;9.106;2023-09-12T10:39:55;38.90;91.60
19586;DHT22;9939;49.246;9.106;2023-09-12T10:42:23;39.20;90.80
19586;DHT22;9939;49.246;9.106;2023-09-12T10:44:50;39.30;90.30
19586;DHT22;9939;49.246;9.106;2023-09-12T10:47:18;39.60;90.60
19586;DHT22;9939;49.246;9.106;2023-09-12T10:49:45;39.70;90.00
19586;DHT22;9939;49.246;9.106;2023-09-12T10:52:25;39.00;90.50
19586;DHT22;9939;49.246;9.106;2023-09-12T10:54:52;38.90;90.20
19586;DHT22;9939;49.246;9.106;2023-09-12T10:57:19;39.60;89.40
19586;DHT22;9939;49.246;9.106;2023-09-12T11:02:32;40.00;88.50
19586;DHT22;9939;49.246;9.106;2023-09-12T11:04:59;40.50;86.50
19586;DHT22;9939;49.246;9.106;2023-09-12T11:12:51;39.50;86.20
19586;DHT22;9939;49.246;9.106;2023-09-12T11:15:19;39.50;88.40
19586;DHT22;9939;49.246;9.106;2023-09-12T11:17:59;40.20;86.30
19586;DHT22;9939;49.246;9.106;2023-09-12T11:20:47;40.10;84.80
19586;DHT22;9939;49.246;9.106;2023-09-12T11:23:13;40.30;84.70
19586;DHT22;9939;49.246;9.106;2023-09-12T11:25:41;40.20;84.90
19586;DHT22;9939;49.246;9.106;2023-09-12T11:28:08;39.90;86.70
19586;DHT22;9939;49.246;9.106;2023-09-12T11:30:35;39.90;87.20
19586;DHT22;9939;49.246;9.106;2023-09-12T11:33:05;39.80;84.20
19586;DHT22;9939;49.246;9.106;2023-09-12T11:35:35;40.40;83.60
19586;DHT22;9939;49.246;9.106;2023-09-12T11:38:03;39.90;83.50
19586;DHT22;9939;49.246;9.106;2023-09-12T11:43:00;39.10;87.40
19586;DHT22;9939;49.246;9.106;2023-09-12T11:45:27;40.40;84.20
19586;DHT22;9939;49.246;9.106;2023-09-12T11:47:54;40.70;82.90
19586;DHT22;9939;49.246;9.106;2023-09-12T11:50:31;40.90;81.90
19586;DHT22;9939;49.246;9.106;2023-09-12T11:53:11;40.90;81.40
19586;DHT22;9939;49.246;9.106;2023-09-12T11:55:48;40.20;82.60
19586;DHT22;9939;49.246;9.106;2023-09-12T11:58:15;41.70;80.60
19586;DHT22;9939;49.246;9.106;2023-09-12T12:00:44;41.50;79.50
19586;DHT22;9939;49.246;9.106;2023-09-12T12:03:13;40.70;79.40
19586;DHT22;9939;49.246;9.106;2023-09-12T12:05:40;40.70;80.00
19586;DHT22;9939;49.246;9.106;2023-09-12T12:08:08;40.90;79.20
19586;DHT22;9939;49.246;9.106;2023-09-12T12:10:56;40.10;80.60
19586;DHT22;9939;49.246;9.106;2023-09-12T12:13:24;37.80;85.70
19586;DHT22;9939;49.246;9.106;2023-09-12T12:15:52;38.00;84.30
19586;DHT22;9939;49.246;9.106;2023-09-12T12:18:19;38.20;85.10
19586;DHT22;9939;49.246;9.106;2023-09-12T12:20:46;39.30;82.90
19586;DHT22;9939;49.246;9.106;2023-09-12T12:23:13;39.60;81.20
19586;DHT22;9939;49.246;9.106;2023-09-12T12:25:40;39.40;82.10
19586;DHT22;9939;49.246;9.106;2023-09-12T12:28:07;40.20;80.40
19586;DHT22;9939;49.246;9.106;2023-09-12T12:30:34;41.70;78.80
19586;DHT22;9939;49.246;9.106;2023-09-12T12:33:02;42.20;77.90
19586;DHT22;9939;49.246;9.106;2023-09-12T12:36:02;43.30;76.20
19586;DHT22;9939;49.246;9.106;2023-09-12T12:38:33;44.70;72.40
19586;DHT22;9939;49.246;9.106;2023-09-12T12:41:02;44.00;72.60
19586;DHT22;9939;49.246;9.106;2023-09-12T12:43:30;45.00;71.80
19586;DHT22;9939;49.246;9.106;2023-09-12T12:45:57;44.60;70.30
19586;DHT22;9939;49.246;9.106;2023-09-12T12:48:31;44.80;69.70
19586;DHT22;9939;49.246;9.106;2023-09-12T12:50:59;44.50;70.10
19586;DHT22;9939;49.246;9.106;2023-09-12T12:56:19;43.00;71.40
19586;DHT22;9939;49.246;9.106;2023-09-12T12:58:50;44.70;69.10
19586;DHT22;9939;49.246;9.106;2023-09-12T13:01:17;45.60;67.20
19586;DHT22;9939;49.246;9.106;2023-09-12T13:03:44;46.30;65.80
19586;DHT22;9939;49.246;9.106;2023-09-12T13:06:13;46.50;65.10
19586;DHT22;9939;49.246;9.106;2023-09-12T13:08:41;45.50;66.30
19586;DHT22;9939;49.246;9.106;2023-09-12T13:11:09;45.50;65.90
19586;DHT22;9939;49.246;9.106;2023-09-12T13:13:37;46.00;65.40
19586;DHT22;9939;49.246;9.106;2023-09-12T13:16:04;46.80;64.50
19586;DHT22;9939;49.246;9.106;2023-09-12T13:18:35;47.10;63.90
19586;DHT22;9939;49.246;9.106;2023-09-12T13:21:02;47.30;63.70
19586;DHT22;9939;49.246;9.106;2023-09-12T13:23:29;46.90;62.50
19586;DHT22;9939;49.246;9.106;2023-09-12T13:25:57;45.10;65.50
19586;DHT22;9939;49.246;9.106;2023-09-12T13:28:24;46.20;63.30
19586;DHT22;9939;49.246;9.106;2023-09-12T13:30:52;47.80;62.00
19586;DHT22;9939;49.246;9.106;2023-09-12T13:33:19;47.70;59.90
19586;DHT22;9939;49.246;9.106;2023-09-12T13:35:48;48.80;60.00
19586;DHT22;9939;49.246;9.106;2023-09-12T13:38:15;48.10;59.80
19586;DHT22;9939;49.246;9.106;2023-09-12T13:40:43;47.20;60.60
19586;DHT22;9939;49.246;9.106;2023-09-12T13:43:11;45.70;61.50
19586;DHT22;9939;49.246;9.106;2023-09-12T13:45:37;47.20;61.60
19586;DHT22;9939;49.246;9.106;2023-09-12T13:48:05;48.50;58.30
19586;DHT22;9939;49.246;9.106;2023-09-12T13:50:32;49.20;59.60
19586;DHT22;9939;49.246;9.106;2023-09-12T13:53:00;49.70;59.30
19586;DHT22;9939;49.246;9.106;2023-09-12T13:55:27;50.30;57.80
19586;DHT22;9939;49.246;9.106;2023-09-12T13:58:14;49.00;58.10
19586;DHT22;9939;49.246;9.106;2023-09-12T14:00:41;47.50;58.80
19586;DHT22;9939;49.246;9.106;2023-09-12T14:03:07;46.80;58.80
19586;DHT22;9939;49.246;9.106;2023-09-12T14:05:35;46.30;59.60
19586;DHT22;9939;49.246;9.106;2023-09-12T14:08:02;47.30;58.50
19586;DHT22;9939;49.246;9.106;2023-09-12T14:10:30;47.10;59.00
19586;DHT22;9939;49.246;9.106;2023-09-12T14:13:03;46.80;59.40
19586;DHT22;9939;49.246;9.106;2023-09-12T14:15:47;45.40;60.50
19586;DHT22;9939;49.246;9.106;2023-09-12T14:18:17;45.60;59.70
19586;DHT22;9939;49.246;9.106;2023-09-12T14:20:45;46.80;59.60
19586;DHT22;9939;49.246;9.106;2023-09-12T14:23:14;44.90;61.30
19586;DHT22;9939;49.246;9.106;2023-09-12T14:25:41;45.30;59.70
19586;DHT22;9939;49.246;9.106;2023-09-12T14:28:09;46.50;59.30
19586;DHT22;9939;49.246;9.106;2023-09-12T14:30:37;45.00;59.60
19586;DHT22;9939;49.246;9.106;2023-09-12T14:33:05;44.60;59.80
19586;DHT22;9939;49.246;9.106;2023-09-12T14:35:32;46.00;59.50
19586;DHT22;9939;49.246;9.106;2023-09-12T14:37:59;47.30;58.30
19586;DHT22;9939;49.246;9.106;2023-09-12T14:40:27;48.10;58.00
19586;DHT22;9939;49.246;9.106;2023-09-12T14:42:54;47.60;57.80
19586;DHT22;9939;49.246;9.106;2023-09-12T14:45:21;46.60;59.50
19586;DHT22;9939;49.246;9.106;2023-09-12T14:47:49;45.80;58.40
19586;DHT22;9939;49.246;9.106;2023-09-12T14:50:16;43.00;62.50
19586;DHT22;9939;49.246;9.106;2023-09-12T14:52:43;41.10;64.00
19586;DHT22;9939;49.246;9.106;2023-09-12T14:55:10;40.30;66.30
19586;DHT22;9939;49.246;9.106;2023-09-12T14:57:37;40.10;66.00
19586;DHT22;9939;49.246;9.106;2023-09-12T15:00:04;40.10;67.10
19586;DHT22;9939;49.246;9.106;2023-09-12T15:02:32;40.20;68.90
19586;DHT22;9939;49.246;9.106;2023-09-12T15:04:59;41.50;67.20
19586;DHT22;9939;49.246;9.106;2023-09-12T15:07:27;43.00;64.60
19586;DHT22;9939;49.246;9.106;2023-09-12T15:09:54;44.10;64.40
19586;DHT22;9939;49.246;9.106;2023-09-12T15:12:21;44.90;65.20
19586;DHT22;9939;49.246;9.106;2023-09-12T15:14:47;45.60;62.80
19586;DHT22;9939;49.246;9.106;2023-09-12T15:17:16;45.60;62.60
19586;DHT22;9939;49.246;9.106;2023-09-12T15:19:43;46.80;61.40
19586;DHT22;9939;49.246;9.106;2023-09-12T15:22:10;47.40;62.00
19586;DHT22;9939;49.246;9.106;2023-09-12T15:24:37;48.50;59.10
19586;DHT22;9939;49.246;9.106;2023-09-12T15:27:04;48.80;58.80
19586;DHT22;9939;49.246;9.106;2023-09-12T15:29:31;49.50;57.80
19586;DHT22;9939;49.246;9.106;2023-09-12T15:31:58;49.20;59.20
19586;DHT22;9939;49.246;9.106;2023-09-12T15:34:26;49.80;56.90
19586;DHT22;9939;49.246;9.106;2023-09-12T15:37:05;49.20;56.40
19586;DHT22;9939;49.246;9.106;2023-09-12T15:39:48;46.60;57.00
19586;DHT22;9939;49.246;9.106;2023-09-12T15:42:15;45.70;59.60
19586;DHT22;9939;49.246;9.106;2023-09-12T15:44:56;45.50;58.00
19586;DHT22;9939;49.246;9.106;2023-09-12T15:47:28;44.60;56.70
19586;DHT22;9939;49.246;9.106;2023-09-12T15:49:55;46.00;55.70
19586;DHT22;9939;49.246;9.106;2023-09-12T15:52:23;46.60;54.00
19586;DHT22;9939;49.246;9.106;2023-09-12T15:54:50;46.10;54.50
19586;DHT22;9939;49.246;9.106;2023-09-12T15:57:19;46.40;53.60
19586;DHT22;9939;49.246;9.106;2023-09-12T15:59:47;45.40;54.60
19586;DHT22;9939;49.246;9.106;2023-09-12T16:02:14;44.90;55.80
19586;DHT22;9939;49.246;9.106;2023-09-12T16:04:41;43.70;56.20
19586;DHT22;9939;49.246;9.106;2023-09-12T16:07:08;44.20;56.80
19586;DHT22;9939;49.246;9.106;2023-09-12T16:09:35;44.30;55.60
19586;DHT22;9939;49.246;9.106;2023-09-12T16:12:02;44.60;55.50